createdAt,value
2019-03-05T00:01:25.450Z,53.85
2019-03-05T00:03:55.353Z,53.04
2019-03-05T00:06:25.269Z,52.35
2019-03-05T00:08:55.259Z,52.02
2019-03-05T00:11:25.160Z,53.67
2019-03-05T00:13:55.445Z,53.26
2019-03-05T00:16:25.335Z,52.46
2019-03-05T00:18:55.821Z,53.07
2019-03-05T00:21:25.776Z,53.01
2019-03-05T00:24:17.423Z,51.45
2019-03-05T00:26:48.188Z,51.08
2019-03-05T00:30:21.796Z,51.39
2019-03-05T00:33:00.792Z,53.68
2019-03-05T00:35:58.861Z,52.56
2019-03-05T00:39:01.107Z,52.72
2019-03-05T00:42:05.199Z,53.00
2019-03-05T00:45:34.668Z,52.45
2019-03-05T00:48:49.966Z,52.34
2019-03-05T00:52:15.812Z,52.80
2019-03-05T00:55:46.315Z,52.38
2019-03-05T00:58:25.930Z,51.27
2019-03-05T01:01:38.931Z,50.98
2019-03-05T01:05:24.110Z,53.24
2019-03-05T01:07:54.250Z,52.38
2019-03-05T01:10:24.913Z,52.78
2019-03-05T01:12:55.237Z,51.87
2019-03-05T01:15:25.346Z,53.59
2019-03-05T01:17:55.326Z,52.33
2019-03-05T01:20:25.345Z,52.97
2019-03-05T01:22:55.365Z,55.21
2019-03-05T01:25:31.400Z,53.02
2019-03-05T01:28:01.722Z,53.07
2019-03-05T01:30:58.315Z,52.88
2019-03-05T01:33:31.574Z,53.43
2019-03-05T01:36:06.327Z,52.96
2019-03-05T01:38:46.167Z,52.19
2019-03-05T01:41:16.166Z,52.04
2019-03-05T01:43:46.311Z,52.48
2019-03-05T01:46:16.400Z,53.31
2019-03-05T01:48:46.346Z,52.56
2019-03-05T01:51:16.289Z,53.13
2019-03-05T01:53:46.166Z,52.74
2019-03-05T01:56:16.101Z,52.68
2019-03-05T01:58:45.984Z,53.02
2019-03-05T02:01:16.178Z,53.34
2019-03-05T02:03:46.299Z,56.12
2019-03-05T02:06:16.501Z,55.23
2019-03-05T02:08:46.674Z,53.37
2019-03-05T02:11:17.791Z,53.35
2019-03-05T02:13:48.138Z,55.75
2019-03-05T02:16:18.278Z,52.80
2019-03-05T02:18:48.203Z,54.64
2019-03-05T02:21:18.512Z,53.44
2019-03-05T02:24:58.203Z,55.25
2019-03-05T02:27:52.828Z,54.55
2019-03-05T02:30:39.204Z,54.39
2019-03-05T02:33:27.518Z,55.11
2019-03-05T02:36:39.018Z,55.40
2019-03-05T02:40:05.630Z,53.82
2019-03-05T02:43:38.657Z,52.88
2019-03-05T02:46:59.056Z,53.15
2019-03-05T02:50:32.001Z,53.66
2019-03-05T02:53:30.673Z,52.65
2019-03-05T02:56:38.083Z,53.42
2019-03-05T03:02:05.509Z,52.75
2019-03-05T03:04:39.724Z,53.95
2019-03-05T03:07:10.013Z,53.85
2019-03-05T03:10:19.313Z,53.06
2019-03-05T03:12:49.345Z,53.11
2019-03-05T03:15:20.148Z,52.20
2019-03-05T03:17:51.442Z,51.87
2019-03-05T03:20:23.022Z,53.31
2019-03-05T03:22:53.479Z,52.59
2019-03-05T03:25:25.115Z,52.61
2019-03-05T03:27:55.358Z,53.84
2019-03-05T03:30:27.315Z,56.80
2019-03-05T03:32:57.428Z,54.69
2019-03-05T03:35:27.813Z,53.03
2019-03-05T03:37:57.712Z,54.07
2019-03-05T03:40:27.718Z,54.38
2019-03-05T03:42:58.103Z,53.73
2019-03-05T03:45:28.661Z,55.69
2019-03-05T03:47:58.788Z,54.13
2019-03-05T03:50:28.981Z,55.54
2019-03-05T03:52:59.230Z,54.93
2019-03-05T03:55:29.268Z,54.87
2019-03-05T03:57:59.511Z,55.03
2019-03-05T04:00:29.571Z,56.56
2019-03-05T04:02:59.524Z,56.66
2019-03-05T04:05:29.441Z,57.06
2019-03-05T04:07:59.522Z,57.44
2019-03-05T04:10:29.408Z,58.79
2019-03-05T04:12:59.311Z,57.48
2019-03-05T04:15:29.240Z,56.99
2019-03-05T04:17:59.187Z,58.68
2019-03-05T04:20:38.869Z,59.18
2019-03-05T04:23:09.133Z,56.88
2019-03-05T04:25:39.017Z,59.97
2019-03-05T04:28:09.418Z,59.09
2019-03-05T04:30:39.424Z,60.80
2019-03-05T04:33:09.939Z,58.21
2019-03-05T04:35:39.824Z,59.01
2019-03-05T04:38:09.767Z,59.76
2019-03-05T04:40:40.384Z,61.16
2019-03-05T04:43:10.702Z,61.79
2019-03-05T04:45:45.931Z,59.01
2019-03-05T04:48:16.356Z,59.22
2019-03-05T04:51:23.283Z,62.12
2019-03-05T04:53:53.316Z,63.09
2019-03-05T04:56:23.222Z,61.93
2019-03-05T04:58:53.157Z,60.07
2019-03-05T05:01:23.638Z,61.70
2019-03-05T05:03:53.769Z,60.76
2019-03-05T05:06:23.956Z,62.27
2019-03-05T05:08:53.862Z,61.78
2019-03-05T05:11:23.786Z,60.55
2019-03-05T05:13:55.190Z,62.19
2019-03-05T05:16:25.172Z,61.27
2019-03-05T05:18:55.103Z,62.34
2019-03-05T05:21:24.983Z,61.65
2019-03-05T05:23:55.232Z,64.79
2019-03-05T05:26:25.170Z,61.48
2019-03-05T05:28:55.061Z,64.59
2019-03-05T05:31:24.975Z,62.96
2019-03-05T05:33:54.894Z,63.07
2019-03-05T05:36:25.626Z,60.81
2019-03-05T05:38:55.635Z,60.46
2019-03-05T05:41:25.592Z,64.44
2019-03-05T05:43:55.523Z,63.55
2019-03-05T05:46:25.495Z,63.63
2019-03-05T05:48:57.229Z,64.44
2019-03-05T05:51:27.393Z,62.52
2019-03-05T05:53:57.287Z,62.19
2019-03-05T05:56:27.182Z,63.43
2019-03-05T05:58:57.117Z,62.74
2019-03-05T06:01:27.648Z,61.81
2019-03-05T06:03:57.604Z,61.81
2019-03-05T06:06:27.612Z,65.13
2019-03-05T06:08:57.493Z,62.24
2019-03-05T06:11:27.465Z,61.36
2019-03-05T06:13:57.367Z,59.86
2019-03-05T06:16:27.268Z,60.98
2019-03-05T06:18:57.189Z,60.37
2019-03-05T06:21:27.592Z,61.02
2019-03-05T06:23:57.482Z,60.56
2019-03-05T06:26:27.469Z,59.72
2019-03-05T06:28:57.383Z,61.14
2019-03-05T06:31:27.345Z,62.91
2019-03-05T06:33:57.283Z,59.96
2019-03-05T06:36:28.731Z,59.38
2019-03-05T06:38:59.037Z,61.29
2019-03-05T06:41:29.162Z,60.44
2019-03-05T06:43:59.418Z,59.05
2019-03-05T06:46:29.346Z,61.00
2019-03-05T06:48:59.279Z,59.23
2019-03-05T06:51:29.651Z,58.59
2019-03-05T06:53:59.810Z,57.25
2019-03-05T06:56:29.949Z,60.01
2019-03-05T06:59:00.093Z,57.83
2019-03-05T07:01:30.267Z,59.16
2019-03-05T07:04:00.430Z,58.84
2019-03-05T07:06:57.243Z,57.18
2019-03-05T07:09:57.536Z,57.57
2019-03-05T07:12:59.898Z,59.08
2019-03-05T07:16:13.482Z,58.64
2019-03-05T07:18:57.480Z,58.68
2019-03-05T07:22:02.955Z,58.05
2019-03-05T07:24:47.799Z,55.84
2019-03-05T07:27:36.804Z,58.66
2019-03-05T07:30:27.043Z,56.10
2019-03-05T07:32:58.909Z,58.55
2019-03-05T07:35:30.740Z,59.16
2019-03-05T07:38:01.009Z,58.00
2019-03-05T07:40:33.184Z,57.15
2019-03-05T07:43:03.425Z,55.62
2019-03-05T07:45:33.461Z,54.85
2019-03-05T07:48:03.447Z,55.69
2019-03-05T07:50:33.407Z,56.06
2019-03-05T07:53:03.682Z,53.77
2019-03-05T07:55:33.724Z,52.81
2019-03-05T07:58:03.692Z,53.91
2019-03-05T08:00:33.715Z,53.63
2019-03-05T08:03:03.854Z,52.15
2019-03-05T08:05:33.912Z,51.59
2019-03-05T08:08:58.776Z,52.42
2019-03-05T08:11:31.677Z,52.71
2019-03-05T08:14:37.829Z,53.57
2019-03-05T08:17:08.410Z,53.40
2019-03-05T08:19:39.091Z,55.79
2019-03-05T08:22:09.854Z,54.22
2019-03-05T08:24:40.103Z,52.16
2019-03-05T08:27:10.339Z,52.05
2019-03-05T08:29:40.733Z,52.75
2019-03-05T08:32:11.403Z,51.76
2019-03-05T08:34:41.371Z,55.08
2019-03-05T08:37:13.322Z,53.25
2019-03-05T08:39:43.311Z,53.88
2019-03-05T08:42:14.211Z,52.51
2019-03-05T08:44:50.415Z,54.53
2019-03-05T08:47:16.678Z,53.73
2019-03-05T08:49:46.977Z,51.88
2019-03-05T08:52:17.511Z,50.76
2019-03-05T08:54:47.580Z,53.76
2019-03-05T08:57:17.704Z,52.77
2019-03-05T08:59:47.995Z,53.22
2019-03-05T09:02:18.179Z,53.82
2019-03-05T09:04:48.243Z,54.90
2019-03-05T09:07:18.564Z,53.31
2019-03-05T09:09:48.470Z,53.19
2019-03-05T09:12:18.614Z,52.27
2019-03-05T09:14:48.660Z,52.67
2019-03-05T09:17:19.403Z,53.63
2019-03-05T09:19:49.485Z,50.94
2019-03-05T09:22:19.470Z,51.82
2019-03-05T09:24:49.496Z,53.43
2019-03-05T09:27:19.497Z,51.53
2019-03-05T09:29:49.674Z,53.51
2019-03-05T09:32:19.692Z,51.24
2019-03-05T09:34:49.972Z,52.96
2019-03-05T09:37:19.891Z,52.95
2019-03-05T09:39:49.881Z,53.84
2019-03-05T09:42:20.339Z,54.81
2019-03-05T09:44:50.325Z,54.52
2019-03-05T09:47:20.491Z,54.34
2019-03-05T09:49:50.641Z,53.92
2019-03-05T09:52:20.588Z,54.16
2019-03-05T09:54:50.717Z,55.85
2019-03-05T09:57:21.104Z,57.72
2019-03-05T09:59:51.076Z,57.86
2019-03-05T10:02:21.369Z,58.92
2019-03-05T10:04:51.265Z,58.24
2019-03-05T10:07:21.204Z,58.18
2019-03-05T10:09:51.113Z,57.21
2019-03-05T10:12:21.354Z,56.40
2019-03-05T10:14:51.418Z,56.56
2019-03-05T10:17:21.327Z,55.10
2019-03-05T10:19:51.675Z,54.08
2019-03-05T10:22:21.582Z,54.85
2019-03-05T10:24:52.069Z,53.67
2019-03-05T10:27:22.138Z,52.65
2019-03-05T10:29:52.500Z,52.59
2019-03-05T10:32:22.475Z,53.55
2019-03-05T10:34:52.493Z,53.38
2019-03-05T10:37:22.805Z,51.78
2019-03-05T10:39:53.043Z,51.71
2019-03-05T10:42:23.142Z,51.14
2019-03-05T10:44:53.174Z,51.24
2019-03-05T10:47:23.207Z,49.74
2019-03-05T10:49:53.316Z,49.17
2019-03-05T10:52:23.402Z,49.05
2019-03-05T10:54:53.881Z,47.85
2019-03-05T10:57:24.153Z,47.27
2019-03-05T10:59:54.068Z,48.03
2019-03-05T11:02:24.123Z,48.93
2019-03-05T11:04:56.620Z,49.04
2019-03-05T11:07:26.677Z,47.35
2019-03-05T11:09:57.036Z,46.50
2019-03-05T11:12:27.485Z,47.70
2019-03-05T11:14:57.393Z,48.44
2019-03-05T11:17:27.432Z,47.50
2019-03-05T11:19:57.575Z,46.90
2019-03-05T11:22:27.650Z,46.96
2019-03-05T11:24:57.588Z,46.74
2019-03-05T11:27:27.543Z,45.57
2019-03-05T11:29:57.700Z,46.37
2019-03-05T11:32:27.614Z,45.96
2019-03-05T11:34:57.640Z,47.11
2019-03-05T11:37:27.803Z,46.87
2019-03-05T11:39:58.080Z,46.01
2019-03-05T11:42:28.217Z,44.89
2019-03-05T11:45:07.101Z,45.54
2019-03-05T11:47:30.299Z,46.12
2019-03-05T11:50:00.336Z,45.11
2019-03-05T11:52:30.395Z,45.46
2019-03-05T11:55:00.345Z,44.48
2019-03-05T11:57:30.367Z,45.63
2019-03-05T12:00:00.451Z,46.33
2019-03-05T12:02:30.430Z,48.01
2019-03-05T12:05:00.367Z,50.00
2019-03-05T12:07:30.280Z,49.06
2019-03-05T12:10:00.406Z,49.78
2019-03-05T12:12:30.813Z,48.52
2019-03-05T12:15:00.885Z,48.79
2019-03-05T12:17:31.098Z,48.11
2019-03-05T12:20:01.062Z,48.83
2019-03-05T12:22:31.477Z,47.53
2019-03-05T12:25:03.655Z,46.97
2019-03-05T12:27:35.802Z,47.26
2019-03-05T12:30:05.926Z,47.71
2019-03-05T12:32:35.972Z,47.73
2019-03-05T12:35:07.047Z,47.42
2019-03-05T12:37:36.995Z,47.28
2019-03-05T12:40:08.705Z,46.92
2019-03-05T12:42:39.075Z,47.36
2019-03-05T12:45:10.337Z,46.84
2019-03-05T12:47:40.391Z,46.54
2019-03-05T12:50:15.201Z,47.88
2019-03-05T12:52:46.187Z,46.02
2019-03-05T12:55:16.696Z,47.00
2019-03-05T12:57:46.860Z,45.29
2019-03-05T13:00:21.585Z,45.88
2019-03-05T13:02:51.913Z,45.84
2019-03-05T13:05:22.244Z,46.64
2019-03-05T13:07:55.940Z,53.60
2019-03-05T13:10:24.440Z,55.73
2019-03-05T13:12:54.547Z,55.53
2019-03-05T13:15:27.985Z,55.84
2019-03-05T13:17:58.005Z,57.59
2019-03-05T13:20:27.903Z,57.27
2019-03-05T13:22:57.894Z,56.73
2019-03-05T13:25:28.683Z,57.05
2019-03-05T13:28:02.063Z,56.79
2019-03-05T13:30:32.518Z,55.97
2019-03-05T13:33:02.498Z,55.92
2019-03-05T13:35:32.723Z,58.39
2019-03-05T13:38:06.906Z,56.58
2019-03-05T13:40:38.360Z,56.10
2019-03-05T13:43:07.300Z,56.81
2019-03-05T13:45:37.493Z,58.56
2019-03-05T13:48:58.418Z,55.06
2019-03-05T13:52:28.141Z,54.87
2019-03-05T13:55:51.947Z,55.19
2019-03-05T13:59:09.211Z,53.45
2019-03-05T14:01:39.445Z,53.53
2019-03-05T14:04:16.716Z,54.74
2019-03-05T14:07:58.130Z,52.71
2019-03-05T14:10:34.927Z,52.17
2019-03-05T14:13:05.417Z,50.88
2019-03-05T14:15:38.488Z,52.70
2019-03-05T14:18:08.964Z,53.02
2019-03-05T14:20:38.913Z,52.37
2019-03-05T14:23:09.210Z,50.03
2019-03-05T14:25:45.298Z,51.67
2019-03-05T14:28:15.533Z,50.69
2019-03-05T14:30:45.890Z,50.72
2019-03-05T14:33:17.893Z,51.84
2019-03-05T14:35:51.522Z,51.72
2019-03-05T14:38:23.766Z,50.10
2019-03-05T14:41:00.322Z,50.98
2019-03-05T14:43:30.674Z,49.59
2019-03-05T14:46:01.378Z,49.33
2019-03-05T14:48:31.436Z,49.72
2019-03-05T14:51:01.456Z,50.76
2019-03-05T14:53:37.496Z,48.79
2019-03-05T14:56:08.366Z,50.06
2019-03-05T14:58:38.704Z,49.55
2019-03-05T15:01:31.312Z,48.08
2019-03-05T15:04:01.721Z,50.63
2019-03-05T15:06:32.366Z,49.58
2019-03-05T15:09:02.512Z,49.48
2019-03-05T15:11:32.881Z,50.47
2019-03-05T15:14:03.431Z,49.24
2019-03-05T15:16:38.611Z,50.34
2019-03-05T15:19:20.573Z,49.42
2019-03-05T15:21:41.184Z,50.10
2019-03-05T15:24:17.860Z,50.55
2019-03-05T15:26:48.229Z,50.72
2019-03-05T15:29:18.585Z,52.54
2019-03-05T15:31:48.855Z,50.78
2019-03-05T15:34:19.083Z,49.53
2019-03-05T15:36:52.140Z,57.13
2019-03-05T15:39:22.797Z,50.22
2019-03-05T15:41:53.078Z,49.95
2019-03-05T15:44:23.396Z,51.60
2019-03-05T15:46:53.796Z,51.06
2019-03-05T15:52:17.143Z,53.52
2019-03-05T15:54:47.425Z,52.54
2019-03-05T15:57:26.340Z,56.22
2019-03-05T16:00:07.860Z,54.38
2019-03-05T16:02:38.586Z,53.47
2019-03-05T16:05:31.194Z,53.37
2019-03-05T16:08:25.130Z,53.59
2019-03-05T16:14:16.201Z,54.64
2019-03-05T16:19:53.608Z,55.06
2019-03-05T16:22:24.558Z,55.36
2019-03-05T16:25:05.982Z,63.75
2019-03-05T16:27:39.972Z,66.49
2019-03-05T16:30:51.863Z,69.35
2019-03-05T16:33:41.832Z,68.93
2019-03-05T16:36:37.661Z,69.37
2019-03-05T16:39:27.440Z,68.08
2019-03-05T16:42:11.031Z,67.85
2019-03-05T16:45:55.053Z,65.85
2019-03-05T16:52:14.566Z,65.75
2019-03-05T16:55:17.772Z,64.43
2019-03-05T17:02:25.909Z,64.48
2019-03-05T17:10:01.701Z,64.71
2019-03-05T18:00:39.136Z,64.99
2019-03-05T18:03:32.611Z,65.41
2019-03-05T18:06:30.450Z,65.04
2019-03-05T18:13:11.808Z,63.45
2019-03-05T18:23:47.279Z,63.87
2019-03-05T18:29:18.333Z,63.34
2019-03-05T18:32:19.107Z,63.07
2019-03-05T18:38:05.848Z,63.45
2019-03-05T18:40:40.343Z,63.64
2019-03-05T18:43:18.257Z,63.65
2019-03-05T18:45:49.336Z,65.16
2019-03-05T18:48:19.663Z,63.89
2019-03-05T18:50:58.134Z,65.29
2019-03-05T18:53:29.355Z,63.64
2019-03-05T18:56:11.569Z,63.69
2019-03-05T18:58:44.563Z,65.55
2019-03-05T19:01:14.622Z,64.98
2019-03-05T19:03:57.029Z,63.01
2019-03-05T19:06:27.700Z,64.69
2019-03-05T19:09:01.609Z,64.10
2019-03-05T19:11:33.634Z,63.66
2019-03-05T19:14:04.631Z,63.94
2019-03-05T19:16:34.666Z,63.46
2019-03-05T19:19:05.091Z,63.74
2019-03-05T19:21:35.692Z,63.80
2019-03-05T19:24:09.350Z,63.52
2019-03-05T19:26:41.269Z,63.32
2019-03-05T19:29:11.483Z,63.95
2019-03-05T19:31:41.671Z,63.99
2019-03-05T19:34:11.968Z,66.37
2019-03-05T19:36:42.246Z,65.50
2019-03-05T19:39:15.069Z,66.54
2019-03-05T19:41:45.683Z,65.56
2019-03-05T19:44:15.693Z,66.64
2019-03-05T19:46:45.568Z,67.41
2019-03-05T19:49:15.960Z,65.37
2019-03-05T19:51:46.079Z,68.94
2019-03-05T19:54:16.140Z,66.02
2019-03-05T19:56:46.140Z,65.27
2019-03-05T19:59:16.476Z,67.70
2019-03-05T20:01:48.759Z,68.37
2019-03-05T20:04:18.626Z,66.63
2019-03-05T20:06:48.756Z,65.05
2019-03-05T20:09:21.638Z,66.97
2019-03-05T20:11:51.513Z,66.39
2019-03-05T20:14:21.834Z,66.52
2019-03-05T20:16:51.733Z,64.96
2019-03-05T20:19:21.928Z,65.41
2019-03-05T20:21:51.933Z,66.58
2019-03-05T20:24:22.015Z,67.65
2019-03-05T20:26:52.021Z,64.80
2019-03-05T20:29:21.938Z,63.81
2019-03-05T20:31:52.412Z,63.77
2019-03-05T20:34:22.354Z,67.08
2019-03-05T20:36:52.243Z,67.81
2019-03-05T20:39:22.142Z,64.76
2019-03-05T20:41:52.057Z,65.83
2019-03-05T20:44:22.003Z,68.44
2019-03-05T20:46:51.921Z,69.15
2019-03-05T20:49:21.866Z,70.23
2019-03-05T20:51:51.864Z,65.88
2019-03-05T20:54:21.798Z,68.50
2019-03-05T20:56:51.735Z,68.93
2019-03-05T20:59:22.338Z,68.87
2019-03-05T21:01:52.484Z,68.10
2019-03-05T21:04:22.482Z,67.02
2019-03-05T21:06:52.464Z,64.51
2019-03-05T21:09:26.323Z,66.16
2019-03-05T21:11:56.237Z,66.93
2019-03-05T21:14:26.605Z,69.30
2019-03-05T21:16:56.660Z,68.20
2019-03-05T21:19:26.651Z,67.66
2019-03-05T21:21:56.582Z,68.07
2019-03-05T21:24:26.733Z,67.19
2019-03-05T21:26:56.705Z,66.95
2019-03-05T21:29:26.628Z,64.46
2019-03-05T21:31:56.551Z,67.28
2019-03-05T21:34:26.469Z,65.18
2019-03-05T21:36:56.419Z,65.30
2019-03-05T21:39:26.438Z,66.68
2019-03-05T21:41:56.586Z,64.45
2019-03-05T21:44:26.691Z,63.14
2019-03-05T21:46:56.768Z,64.56
2019-03-05T21:49:27.176Z,63.79
2019-03-05T21:51:57.334Z,64.59
2019-03-05T21:54:27.505Z,63.29
2019-03-05T21:56:57.610Z,62.74
2019-03-05T21:59:27.638Z,62.67
2019-03-05T22:01:57.626Z,63.03
2019-03-05T22:04:28.024Z,62.87
2019-03-05T22:06:58.157Z,63.29
2019-03-05T22:09:28.464Z,62.95
2019-03-05T22:11:58.477Z,66.18
2019-03-05T22:14:28.865Z,64.48
2019-03-05T22:16:58.807Z,64.75
2019-03-05T22:19:28.655Z,63.61
2019-03-05T22:21:58.850Z,64.59
2019-03-05T22:24:29.719Z,65.99
2019-03-05T22:26:59.750Z,65.29
2019-03-05T22:29:29.669Z,63.86
2019-03-05T22:31:59.880Z,65.64
2019-03-05T22:34:30.064Z,67.49
2019-03-05T22:36:59.975Z,66.27
2019-03-05T22:39:29.881Z,64.60
2019-03-05T22:41:59.800Z,64.46
2019-03-05T22:44:29.773Z,65.21
2019-03-05T22:46:59.976Z,65.16
2019-03-05T22:49:30.093Z,65.27
2019-03-05T22:52:01.103Z,63.50
2019-03-05T22:54:31.528Z,66.79
2019-03-05T22:57:01.628Z,65.00
2019-03-05T22:59:32.238Z,64.81
2019-03-05T23:02:02.208Z,63.25
2019-03-05T23:04:38.993Z,62.97
2019-03-05T23:07:09.712Z,64.77
2019-03-05T23:09:39.631Z,63.87
2019-03-05T23:12:10.212Z,63.97
2019-03-05T23:14:40.166Z,66.82
2019-03-05T23:17:10.280Z,65.33
2019-03-05T23:19:40.165Z,68.17
2019-03-05T23:22:10.325Z,62.89
2019-03-05T23:24:40.453Z,64.70
2019-03-05T23:27:10.398Z,62.61
2019-03-05T23:29:45.699Z,63.87
2019-03-05T23:32:18.564Z,61.82
2019-03-05T23:34:48.834Z,62.23
2019-03-05T23:37:18.902Z,62.48
2019-03-05T23:39:48.989Z,62.78
2019-03-05T23:42:19.011Z,62.14
2019-03-05T23:44:48.910Z,63.02
2019-03-05T23:47:19.122Z,63.87
2019-03-05T23:49:49.124Z,62.83
2019-03-05T23:52:19.236Z,60.55
2019-03-05T23:54:49.148Z,61.26
2019-03-05T23:57:19.120Z,61.18
2019-03-05T23:59:49.182Z,65.67
